sensor_id;sensor_type;location;lat;lon;timestamp;temperature;humidity
8910;DHT22;4490;49.072;8.804;2022-11-21T00:01:37;7.30;99.90
8910;DHT22;4490;49.072;8.804;2022-11-21T00:04:03;7.30;99.90
8910;DHT22;4490;49.072;8.804;2022-11-21T00:06:28;7.30;99.90
8910;DHT22;4490;49.072;8.804;2022-11-21T00:08:54;7.30;99.90
8910;DHT22;4490;49.072;8.804;2022-11-21T00:11:20;7.30;99.90
8910;DHT22;4490;49.072;8.804;2022-11-21T00:13:46;7.30;99.90
8910;DHT22;4490;49.072;8.804;2022-11-21T00:16:14;7.30;99.90
8910;DHT22;4490;49.072;8.804;2022-11-21T00:18:40;7.30;99.90
8910;DHT22;4490;49.072;8.804;2022-11-21T00:21:07;7.30;99.90
8910;DHT22;4490;49.072;8.804;2022-11-21T00:23:34;7.20;99.90
8910;DHT22;4490;49.072;8.804;2022-11-21T00:26:06;7.20;99.90
8910;DHT22;4490;49.072;8.804;2022-11-21T00:28:33;7.30;99.90
8910;DHT22;4490;49.072;8.804;2022-11-21T00:30:58;7.30;99.90
8910;DHT22;4490;49.072;8.804;2022-11-21T00:33:24;7.20;99.90
8910;DHT22;4490;49.072;8.804;2022-11-21T00:35:50;7.20;99.90
8910;DHT22;4490;49.072;8.804;2022-11-21T00:38:15;7.20;99.90
8910;DHT22;4490;49.072;8.804;2022-11-21T00:40:44;7.20;99.90
8910;DHT22;4490;49.072;8.804;2022-11-21T00:43:10;7.20;99.90
8910;DHT22;4490;49.072;8.804;2022-11-21T00:45:36;7.20;99.90
8910;DHT22;4490;49.072;8.804;2022-11-21T00:48:02;7.20;99.90
8910;DHT22;4490;49.072;8.804;2022-11-21T00:50:28;7.10;99.90
8910;DHT22;4490;49.072;8.804;2022-11-21T00:52:57;7.10;99.90
8910;DHT22;4490;49.072;8.804;2022-11-21T00:55:24;7.10;99.90
8910;DHT22;4490;49.072;8.804;2022-11-21T00:57:50;7.10;99.90
8910;DHT22;4490;49.072;8.804;2022-11-21T01:00:16;7.10;99.90
8910;DHT22;4490;49.072;8.804;2022-11-21T01:02:42;7.10;99.90
8910;DHT22;4490;49.072;8.804;2022-11-21T01:05:08;7.10;99.90
8910;DHT22;4490;49.072;8.804;2022-11-21T01:07:34;7.10;99.90
8910;DHT22;4490;49.072;8.804;2022-11-21T01:09:59;7.10;99.90
8910;DHT22;4490;49.072;8.804;2022-11-21T01:12:25;7.10;99.90
8910;DHT22;4490;49.072;8.804;2022-11-21T01:14:51;7.10;99.90
8910;DHT22;4490;49.072;8.804;2022-11-21T01:17:17;7.10;99.90
8910;DHT22;4490;49.072;8.804;2022-11-21T01:19:43;7.00;99.90
8910;DHT22;4490;49.072;8.804;2022-11-21T01:22:09;7.00;99.90
8910;DHT22;4490;49.072;8.804;2022-11-21T01:24:34;7.00;99.90
8910;DHT22;4490;49.072;8.804;2022-11-21T01:27:00;7.00;99.90
8910;DHT22;4490;49.072;8.804;2022-11-21T01:29:26;7.00;99.90
8910;DHT22;4490;49.072;8.804;2022-11-21T01:31:52;7.00;99.90
8910;DHT22;4490;49.072;8.804;2022-11-21T01:34:18;6.90;99.90
8910;DHT22;4490;49.072;8.804;2022-11-21T01:36:43;6.90;99.90
8910;DHT22;4490;49.072;8.804;2022-11-21T01:39:10;6.90;99.90
8910;DHT22;4490;49.072;8.804;2022-11-21T01:41:38;6.90;99.90
8910;DHT22;4490;49.072;8.804;2022-11-21T01:44:22;6.90;99.90
8910;DHT22;4490;49.072;8.804;2022-11-21T01:46:49;6.90;99.90
8910;DHT22;4490;49.072;8.804;2022-11-21T01:49:29;6.90;99.90
8910;DHT22;4490;49.072;8.804;2022-11-21T01:52:04;6.80;99.90
8910;DHT22;4490;49.072;8.804;2022-11-21T01:54:35;6.80;99.90
8910;DHT22;4490;49.072;8.804;2022-11-21T01:57:21;6.80;99.90
8910;DHT22;4490;49.072;8.804;2022-11-21T02:00:04;6.80;99.90
8910;DHT22;4490;49.072;8.804;2022-11-21T02:02:33;6.80;99.90
8910;DHT22;4490;49.072;8.804;2022-11-21T02:05:02;6.70;99.90
8910;DHT22;4490;49.072;8.804;2022-11-21T02:07:31;6.70;99.90
8910;DHT22;4490;49.072;8.804;2022-11-21T02:10:01;6.70;99.90
8910;DHT22;4490;49.072;8.804;2022-11-21T02:12:45;6.70;99.90
8910;DHT22;4490;49.072;8.804;2022-11-21T02:15:11;6.70;99.90
8910;DHT22;4490;49.072;8.804;2022-11-21T02:17:37;6.70;99.90
8910;DHT22;4490;49.072;8.804;2022-11-21T02:20:06;6.70;99.90
8910;DHT22;4490;49.072;8.804;2022-11-21T02:23:23;6.80;99.90
8910;DHT22;4490;49.072;8.804;2022-11-21T02:25:40;6.80;99.90
8910;DHT22;4490;49.072;8.804;2022-11-21T02:28:10;6.80;99.90
8910;DHT22;4490;49.072;8.804;2022-11-21T02:30:38;6.80;99.90
8910;DHT22;4490;49.072;8.804;2022-11-21T02:33:04;6.80;99.90
8910;DHT22;4490;49.072;8.804;2022-11-21T02:35:30;6.90;99.90
8910;DHT22;4490;49.072;8.804;2022-11-21T02:38:05;6.90;99.90
8910;DHT22;4490;49.072;8.804;2022-11-21T02:40:38;6.90;99.90
8910;DHT22;4490;49.072;8.804;2022-11-21T02:43:11;6.90;99.90
8910;DHT22;4490;49.072;8.804;2022-11-21T02:45:41;6.90;99.90
8910;DHT22;4490;49.072;8.804;2022-11-21T02:48:07;6.90;99.90
8910;DHT22;4490;49.072;8.804;2022-11-21T02:50:35;7.00;99.90
8910;DHT22;4490;49.072;8.804;2022-11-21T02:53:03;6.90;99.90
8910;DHT22;4490;49.072;8.804;2022-11-21T02:55:29;6.90;99.90
8910;DHT22;4490;49.072;8.804;2022-11-21T02:57:54;6.90;99.90
8910;DHT22;4490;49.072;8.804;2022-11-21T03:00:21;6.90;99.90
8910;DHT22;4490;49.072;8.804;2022-11-21T03:02:47;7.00;99.90
8910;DHT22;4490;49.072;8.804;2022-11-21T03:05:14;7.00;99.90
8910;DHT22;4490;49.072;8.804;2022-11-21T03:07:40;7.00;99.90
8910;DHT22;4490;49.072;8.804;2022-11-21T03:10:06;7.00;99.90
8910;DHT22;4490;49.072;8.804;2022-11-21T03:12:35;7.00;99.90
8910;DHT22;4490;49.072;8.804;2022-11-21T03:15:01;7.00;99.90
8910;DHT22;4490;49.072;8.804;2022-11-21T03:17:26;7.00;99.90
8910;DHT22;4490;49.072;8.804;2022-11-21T03:19:52;7.10;99.90
8910;DHT22;4490;49.072;8.804;2022-11-21T03:22:17;7.10;99.90
8910;DHT22;4490;49.072;8.804;2022-11-21T03:24:43;7.10;99.90
8910;DHT22;4490;49.072;8.804;2022-11-21T03:27:09;7.10;99.90
8910;DHT22;4490;49.072;8.804;2022-11-21T03:29:34;7.10;99.90
8910;DHT22;4490;49.072;8.804;2022-11-21T03:32:00;7.20;99.90
8910;DHT22;4490;49.072;8.804;2022-11-21T03:34:25;7.20;99.90
8910;DHT22;4490;49.072;8.804;2022-11-21T03:36:51;7.20;99.90
8910;DHT22;4490;49.072;8.804;2022-11-21T03:39:16;7.20;99.90
8910;DHT22;4490;49.072;8.804;2022-11-21T03:41:42;7.20;99.90
8910;DHT22;4490;49.072;8.804;2022-11-21T03:44:10;7.20;99.90
8910;DHT22;4490;49.072;8.804;2022-11-21T03:46:38;7.20;99.90
8910;DHT22;4490;49.072;8.804;2022-11-21T03:49:05;7.20;99.90
8910;DHT22;4490;49.072;8.804;2022-11-21T03:51:31;7.20;99.90
8910;DHT22;4490;49.072;8.804;2022-11-21T03:53:57;7.30;99.90
8910;DHT22;4490;49.072;8.804;2022-11-21T03:56:23;7.30;99.90
8910;DHT22;4490;49.072;8.804;2022-11-21T03:58:49;7.30;99.90
8910;DHT22;4490;49.072;8.804;2022-11-21T04:01:15;7.30;99.90
8910;DHT22;4490;49.072;8.804;2022-11-21T04:03:41;7.30;99.90
8910;DHT22;4490;49.072;8.804;2022-11-21T04:06:08;7.30;99.90
8910;DHT22;4490;49.072;8.804;2022-11-21T04:08:34;7.30;99.90
8910;DHT22;4490;49.072;8.804;2022-11-21T04:11:00;7.30;99.90
8910;DHT22;4490;49.072;8.804;2022-11-21T04:13:26;7.30;99.90
8910;DHT22;4490;49.072;8.804;2022-11-21T04:15:51;7.30;99.90
8910;DHT22;4490;49.072;8.804;2022-11-21T04:18:17;7.20;99.90
8910;DHT22;4490;49.072;8.804;2022-11-21T04:20:43;7.20;99.90
8910;DHT22;4490;49.072;8.804;2022-11-21T04:23:08;7.20;99.90
8910;DHT22;4490;49.072;8.804;2022-11-21T04:25:34;7.30;99.90
8910;DHT22;4490;49.072;8.804;2022-11-21T04:28:00;7.30;99.90
8910;DHT22;4490;49.072;8.804;2022-11-21T04:30:27;7.20;99.90
8910;DHT22;4490;49.072;8.804;2022-11-21T04:32:54;7.20;99.90
8910;DHT22;4490;49.072;8.804;2022-11-21T04:35:21;7.20;99.90
8910;DHT22;4490;49.072;8.804;2022-11-21T04:37:47;7.20;99.90
8910;DHT22;4490;49.072;8.804;2022-11-21T04:40:13;7.20;99.90
8910;DHT22;4490;49.072;8.804;2022-11-21T04:42:43;7.20;99.90
8910;DHT22;4490;49.072;8.804;2022-11-21T04:45:10;7.20;99.90
8910;DHT22;4490;49.072;8.804;2022-11-21T04:47:39;7.20;99.90
8910;DHT22;4490;49.072;8.804;2022-11-21T04:50:06;7.20;99.90
8910;DHT22;4490;49.072;8.804;2022-11-21T04:52:32;7.20;99.90
8910;DHT22;4490;49.072;8.804;2022-11-21T04:54:58;7.20;99.90
8910;DHT22;4490;49.072;8.804;2022-11-21T04:57:25;7.20;99.90
8910;DHT22;4490;49.072;8.804;2022-11-21T04:59:51;7.30;99.90
8910;DHT22;4490;49.072;8.804;2022-11-21T05:02:17;7.30;99.90
8910;DHT22;4490;49.072;8.804;2022-11-21T05:04:42;7.20;99.90
8910;DHT22;4490;49.072;8.804;2022-11-21T05:07:08;7.30;99.90
8910;DHT22;4490;49.072;8.804;2022-11-21T05:09:33;7.20;99.90
8910;DHT22;4490;49.072;8.804;2022-11-21T05:11:59;7.20;99.90
8910;DHT22;4490;49.072;8.804;2022-11-21T05:14:43;7.20;99.90
8910;DHT22;4490;49.072;8.804;2022-11-21T05:17:08;7.20;99.90
8910;DHT22;4490;49.072;8.804;2022-11-21T05:19:34;7.20;99.90
8910;DHT22;4490;49.072;8.804;2022-11-21T05:22:00;7.20;99.90
8910;DHT22;4490;49.072;8.804;2022-11-21T05:24:25;7.20;99.90
8910;DHT22;4490;49.072;8.804;2022-11-21T05:26:51;7.20;99.90
8910;DHT22;4490;49.072;8.804;2022-11-21T05:29:18;7.20;99.90
8910;DHT22;4490;49.072;8.804;2022-11-21T05:31:43;7.20;99.90
8910;DHT22;4490;49.072;8.804;2022-11-21T05:34:09;7.20;99.90
8910;DHT22;4490;49.072;8.804;2022-11-21T05:36:34;7.20;99.90
8910;DHT22;4490;49.072;8.804;2022-11-21T05:39:00;7.10;99.90
8910;DHT22;4490;49.072;8.804;2022-11-21T05:41:25;7.10;99.90
8910;DHT22;4490;49.072;8.804;2022-11-21T05:43:51;7.10;99.90
8910;DHT22;4490;49.072;8.804;2022-11-21T05:46:19;7.10;99.90
8910;DHT22;4490;49.072;8.804;2022-11-21T05:48:46;7.10;99.90
8910;DHT22;4490;49.072;8.804;2022-11-21T05:51:13;7.10;99.90
8910;DHT22;4490;49.072;8.804;2022-11-21T05:53:39;7.00;99.90
8910;DHT22;4490;49.072;8.804;2022-11-21T05:56:06;7.00;99.90
8910;DHT22;4490;49.072;8.804;2022-11-21T05:58:33;7.00;99.90
8910;DHT22;4490;49.072;8.804;2022-11-21T06:00:59;7.00;99.90
8910;DHT22;4490;49.072;8.804;2022-11-21T06:03:25;6.90;99.90
8910;DHT22;4490;49.072;8.804;2022-11-21T06:05:57;6.90;99.90
8910;DHT22;4490;49.072;8.804;2022-11-21T06:08:22;6.90;99.90
8910;DHT22;4490;49.072;8.804;2022-11-21T06:10:48;6.90;99.90
8910;DHT22;4490;49.072;8.804;2022-11-21T06:13:14;6.90;99.90
8910;DHT22;4490;49.072;8.804;2022-11-21T06:18:27;6.80;99.90
8910;DHT22;4490;49.072;8.804;2022-11-21T06:20:53;6.80;99.90
8910;DHT22;4490;49.072;8.804;2022-11-21T06:23:24;6.80;99.90
8910;DHT22;4490;49.072;8.804;2022-11-21T06:25:58;6.80;99.90
8910;DHT22;4490;49.072;8.804;2022-11-21T06:28:34;6.90;99.90
8910;DHT22;4490;49.072;8.804;2022-11-21T06:31:11;6.90;99.90
8910;DHT22;4490;49.072;8.804;2022-11-21T06:33:38;6.90;99.90
8910;DHT22;4490;49.072;8.804;2022-11-21T06:36:06;6.90;99.90
8910;DHT22;4490;49.072;8.804;2022-11-21T06:38:33;6.90;99.90
8910;DHT22;4490;49.072;8.804;2022-11-21T06:41:04;6.90;99.90
8910;DHT22;4490;49.072;8.804;2022-11-21T06:43:30;6.90;99.90
8910;DHT22;4490;49.072;8.804;2022-11-21T06:45:55;6.90;99.90
8910;DHT22;4490;49.072;8.804;2022-11-21T06:48:21;6.90;99.90
8910;DHT22;4490;49.072;8.804;2022-11-21T06:50:47;6.90;99.90
8910;DHT22;4490;49.072;8.804;2022-11-21T06:53:12;6.90;99.90
8910;DHT22;4490;49.072;8.804;2022-11-21T06:55:38;6.90;99.90
8910;DHT22;4490;49.072;8.804;2022-11-21T06:58:04;6.90;99.90
8910;DHT22;4490;49.072;8.804;2022-11-21T07:00:29;6.90;99.90
8910;DHT22;4490;49.072;8.804;2022-11-21T07:03:02;6.90;99.90
8910;DHT22;4490;49.072;8.804;2022-11-21T07:05:28;6.90;99.90
8910;DHT22;4490;49.072;8.804;2022-11-21T07:07:58;6.90;99.90
8910;DHT22;4490;49.072;8.804;2022-11-21T07:10:24;6.90;99.90
8910;DHT22;4490;49.072;8.804;2022-11-21T07:12:49;6.90;99.90
8910;DHT22;4490;49.072;8.804;2022-11-21T07:15:36;7.00;99.90
8910;DHT22;4490;49.072;8.804;2022-11-21T07:18:02;7.00;99.90
8910;DHT22;4490;49.072;8.804;2022-11-21T07:20:27;7.00;99.90
8910;DHT22;4490;49.072;8.804;2022-11-21T07:22:54;7.00;99.90
8910;DHT22;4490;49.072;8.804;2022-11-21T07:25:20;7.00;99.90
8910;DHT22;4490;49.072;8.804;2022-11-21T07:27:46;7.00;99.90
8910;DHT22;4490;49.072;8.804;2022-11-21T07:30:12;7.00;99.90
8910;DHT22;4490;49.072;8.804;2022-11-21T07:32:38;7.00;99.90
8910;DHT22;4490;49.072;8.804;2022-11-21T07:35:04;7.00;99.90
8910;DHT22;4490;49.072;8.804;2022-11-21T07:37:29;7.00;99.90
8910;DHT22;4490;49.072;8.804;2022-11-21T07:39:55;7.00;99.90
8910;DHT22;4490;49.072;8.804;2022-11-21T07:42:20;7.00;99.90
8910;DHT22;4490;49.072;8.804;2022-11-21T07:44:46;7.00;99.90
8910;DHT22;4490;49.072;8.804;2022-11-21T07:47:12;7.00;99.90
8910;DHT22;4490;49.072;8.804;2022-11-21T07:49:37;7.00;99.90
8910;DHT22;4490;49.072;8.804;2022-11-21T07:52:03;7.00;99.90
8910;DHT22;4490;49.072;8.804;2022-11-21T07:54:29;7.10;99.90
8910;DHT22;4490;49.072;8.804;2022-11-21T07:56:54;7.10;99.90
8910;DHT22;4490;49.072;8.804;2022-11-21T07:59:20;7.20;99.90
8910;DHT22;4490;49.072;8.804;2022-11-21T08:01:45;7.20;99.90
8910;DHT22;4490;49.072;8.804;2022-11-21T08:04:11;7.20;99.90
8910;DHT22;4490;49.072;8.804;2022-11-21T08:06:37;7.30;99.90
8910;DHT22;4490;49.072;8.804;2022-11-21T08:09:02;7.30;99.90
8910;DHT22;4490;49.072;8.804;2022-11-21T08:11:28;7.30;99.90
8910;DHT22;4490;49.072;8.804;2022-11-21T08:13:55;7.40;99.90
8910;DHT22;4490;49.072;8.804;2022-11-21T08:16:22;7.40;99.90
8910;DHT22;4490;49.072;8.804;2022-11-21T08:18:48;7.40;99.90
8910;DHT22;4490;49.072;8.804;2022-11-21T08:21:15;7.40;99.90
8910;DHT22;4490;49.072;8.804;2022-11-21T08:23:41;7.50;99.90
8910;DHT22;4490;49.072;8.804;2022-11-21T08:26:08;7.60;99.90
8910;DHT22;4490;49.072;8.804;2022-11-21T08:28:35;7.60;99.90
8910;DHT22;4490;49.072;8.804;2022-11-21T08:31:04;7.70;99.90
8910;DHT22;4490;49.072;8.804;2022-11-21T08:33:30;7.80;99.90
8910;DHT22;4490;49.072;8.804;2022-11-21T08:35:56;7.80;99.90
8910;DHT22;4490;49.072;8.804;2022-11-21T08:38:21;7.90;99.90
8910;DHT22;4490;49.072;8.804;2022-11-21T08:40:47;7.90;99.90
8910;DHT22;4490;49.072;8.804;2022-11-21T08:43:33;7.90;99.90
8910;DHT22;4490;49.072;8.804;2022-11-21T08:45:58;7.90;99.90
8910;DHT22;4490;49.072;8.804;2022-11-21T08:48:24;7.90;99.90
8910;DHT22;4490;49.072;8.804;2022-11-21T08:50:49;8.00;99.90
8910;DHT22;4490;49.072;8.804;2022-11-21T08:53:15;8.00;99.90
8910;DHT22;4490;49.072;8.804;2022-11-21T08:55:40;8.00;99.90
8910;DHT22;4490;49.072;8.804;2022-11-21T08:58:06;8.00;99.90
8910;DHT22;4490;49.072;8.804;2022-11-21T09:00:32;8.00;99.90
8910;DHT22;4490;49.072;8.804;2022-11-21T09:02:57;8.00;99.90
8910;DHT22;4490;49.072;8.804;2022-11-21T09:05:23;8.10;99.90
8910;DHT22;4490;49.072;8.804;2022-11-21T09:07:55;8.10;99.90
8910;DHT22;4490;49.072;8.804;2022-11-21T09:10:22;8.10;99.90
8910;DHT22;4490;49.072;8.804;2022-11-21T09:12:47;8.20;99.90
8910;DHT22;4490;49.072;8.804;2022-11-21T09:15:13;8.20;99.90
8910;DHT22;4490;49.072;8.804;2022-11-21T09:18:01;8.20;99.90
8910;DHT22;4490;49.072;8.804;2022-11-21T09:20:36;8.20;99.90
8910;DHT22;4490;49.072;8.804;2022-11-21T09:23:08;8.30;99.90
8910;DHT22;4490;49.072;8.804;2022-11-21T09:25:33;8.30;99.90
8910;DHT22;4490;49.072;8.804;2022-11-21T09:28:03;8.30;99.90
8910;DHT22;4490;49.072;8.804;2022-11-21T09:30:28;8.40;99.90
8910;DHT22;4490;49.072;8.804;2022-11-21T09:32:59;8.40;99.90
8910;DHT22;4490;49.072;8.804;2022-11-21T09:35:24;8.50;99.90
8910;DHT22;4490;49.072;8.804;2022-11-21T09:37:50;8.50;99.90
8910;DHT22;4490;49.072;8.804;2022-11-21T09:40:16;8.60;99.90
8910;DHT22;4490;49.072;8.804;2022-11-21T09:46:09;8.70;99.90
8910;DHT22;4490;49.072;8.804;2022-11-21T09:48:57;8.80;99.90
8910;DHT22;4490;49.072;8.804;2022-11-21T09:51:25;8.80;99.90
8910;DHT22;4490;49.072;8.804;2022-11-21T09:56:38;8.90;99.90
8910;DHT22;4490;49.072;8.804;2022-11-21T10:01:55;8.90;99.90
8910;DHT22;4490;49.072;8.804;2022-11-21T10:04:21;8.90;99.90
8910;DHT22;4490;49.072;8.804;2022-11-21T10:06:59;8.80;99.90
8910;DHT22;4490;49.072;8.804;2022-11-21T10:12:09;8.80;99.90
8910;DHT22;4490;49.072;8.804;2022-11-21T10:15:09;8.80;99.90
8910;DHT22;4490;49.072;8.804;2022-11-21T10:26:08;8.80;99.90
8910;DHT22;4490;49.072;8.804;2022-11-21T10:28:55;8.80;99.90
8910;DHT22;4490;49.072;8.804;2022-11-21T10:31:21;8.80;99.90
8910;DHT22;4490;49.072;8.804;2022-11-21T10:33:49;8.80;99.90
8910;DHT22;4490;49.072;8.804;2022-11-21T10:36:35;8.80;99.90
8910;DHT22;4490;49.072;8.804;2022-11-21T10:39:13;8.80;99.90
8910;DHT22;4490;49.072;8.804;2022-11-21T10:41:48;8.80;99.90
8910;DHT22;4490;49.072;8.804;2022-11-21T10:44:27;8.70;99.90
8910;DHT22;4490;49.072;8.804;2022-11-21T10:47:21;8.70;99.90
8910;DHT22;4490;49.072;8.804;2022-11-21T10:52:39;8.60;99.90
8910;DHT22;4490;49.072;8.804;2022-11-21T10:55:09;8.60;99.90
8910;DHT22;4490;49.072;8.804;2022-11-21T10:57:46;8.70;99.90
8910;DHT22;4490;49.072;8.804;2022-11-21T11:03:14;8.80;99.90
8910;DHT22;4490;49.072;8.804;2022-11-21T11:05:53;9.00;99.90
8910;DHT22;4490;49.072;8.804;2022-11-21T11:08:19;9.10;99.90
8910;DHT22;4490;49.072;8.804;2022-11-21T11:13:25;9.30;99.90
8910;DHT22;4490;49.072;8.804;2022-11-21T11:18:46;9.40;99.90
8910;DHT22;4490;49.072;8.804;2022-11-21T11:21:23;9.50;99.90
8910;DHT22;4490;49.072;8.804;2022-11-21T11:23:51;9.50;99.90
8910;DHT22;4490;49.072;8.804;2022-11-21T11:26:21;9.60;99.90
8910;DHT22;4490;49.072;8.804;2022-11-21T11:28:47;9.70;99.90
8910;DHT22;4490;49.072;8.804;2022-11-21T11:31:13;9.70;99.90
8910;DHT22;4490;49.072;8.804;2022-11-21T11:33:48;9.70;99.90
8910;DHT22;4490;49.072;8.804;2022-11-21T11:38:59;9.90;99.90
8910;DHT22;4490;49.072;8.804;2022-11-21T11:44:45;9.90;99.90
8910;DHT22;4490;49.072;8.804;2022-11-21T11:47:38;9.90;99.90
8910;DHT22;4490;49.072;8.804;2022-11-21T11:50:15;10.00;99.90
8910;DHT22;4490;49.072;8.804;2022-11-21T11:53:37;10.00;99.90
8910;DHT22;4490;49.072;8.804;2022-11-21T11:58:07;10.00;99.90
8910;DHT22;4490;49.072;8.804;2022-11-21T12:00:45;10.10;99.90
8910;DHT22;4490;49.072;8.804;2022-11-21T12:03:23;10.10;99.90
8910;DHT22;4490;49.072;8.804;2022-11-21T12:06:04;10.10;99.90
8910;DHT22;4490;49.072;8.804;2022-11-21T12:08:46;10.20;99.90
8910;DHT22;4490;49.072;8.804;2022-11-21T12:11:25;10.20;99.90
8910;DHT22;4490;49.072;8.804;2022-11-21T12:17:37;10.40;99.90
8910;DHT22;4490;49.072;8.804;2022-11-21T12:20:56;10.50;99.90
8910;DHT22;4490;49.072;8.804;2022-11-21T12:23:01;10.60;99.90
8910;DHT22;4490;49.072;8.804;2022-11-21T12:25:32;10.60;99.90
8910;DHT22;4490;49.072;8.804;2022-11-21T12:27:59;10.60;99.90
8910;DHT22;4490;49.072;8.804;2022-11-21T12:33:18;10.50;97.60
8910;DHT22;4490;49.072;8.804;2022-11-21T12:35:51;10.50;97.90
8910;DHT22;4490;49.072;8.804;2022-11-21T12:38:37;10.50;98.60
8910;DHT22;4490;49.072;8.804;2022-11-21T12:47:01;10.50;99.90
8910;DHT22;4490;49.072;8.804;2022-11-21T12:49:39;10.50;99.90
8910;DHT22;4490;49.072;8.804;2022-11-21T12:52:33;10.60;99.70
8910;DHT22;4490;49.072;8.804;2022-11-21T12:58:00;10.70;99.90
8910;DHT22;4490;49.072;8.804;2022-11-21T13:05:57;10.70;99.40
8910;DHT22;4490;49.072;8.804;2022-11-21T13:08:26;10.60;99.90
8910;DHT22;4490;49.072;8.804;2022-11-21T13:16:38;10.50;99.90
8910;DHT22;4490;49.072;8.804;2022-11-21T13:19:20;10.50;99.90
8910;DHT22;4490;49.072;8.804;2022-11-21T13:21:51;10.60;99.80
8910;DHT22;4490;49.072;8.804;2022-11-21T13:32:42;11.10;99.90
8910;DHT22;4490;49.072;8.804;2022-11-21T13:38:07;11.30;99.90
8910;DHT22;4490;49.072;8.804;2022-11-21T13:40:36;11.40;99.80
8910;DHT22;4490;49.072;8.804;2022-11-21T13:45:43;11.60;98.30
8910;DHT22;4490;49.072;8.804;2022-11-21T13:51:33;11.80;95.70
8910;DHT22;4490;49.072;8.804;2022-11-21T13:59:53;11.70;94.30
8910;DHT22;4490;49.072;8.804;2022-11-21T14:08:17;11.50;94.20
8910;DHT22;4490;49.072;8.804;2022-11-21T14:10:44;11.40;93.90
8910;DHT22;4490;49.072;8.804;2022-11-21T14:13:21;11.30;94.30
8910;DHT22;4490;49.072;8.804;2022-11-21T14:18:44;11.20;94.50
8910;DHT22;4490;49.072;8.804;2022-11-21T14:21:20;11.10;95.10
8910;DHT22;4490;49.072;8.804;2022-11-21T14:23:46;11.00;95.40
8910;DHT22;4490;49.072;8.804;2022-11-21T14:26:17;10.90;95.60
8910;DHT22;4490;49.072;8.804;2022-11-21T14:28:44;10.90;95.90
8910;DHT22;4490;49.072;8.804;2022-11-21T14:31:11;10.80;96.70
8910;DHT22;4490;49.072;8.804;2022-11-21T14:33:38;10.70;96.70
8910;DHT22;4490;49.072;8.804;2022-11-21T14:41:31;10.50;97.20
8910;DHT22;4490;49.072;8.804;2022-11-21T14:46:24;10.30;99.30
8910;DHT22;4490;49.072;8.804;2022-11-21T14:48:50;10.30;99.60
8910;DHT22;4490;49.072;8.804;2022-11-21T14:51:19;10.20;99.70
8910;DHT22;4490;49.072;8.804;2022-11-21T14:53:46;10.10;99.90
8910;DHT22;4490;49.072;8.804;2022-11-21T14:58:53;10.00;99.90
8910;DHT22;4490;49.072;8.804;2022-11-21T15:01:24;9.90;99.90
8910;DHT22;4490;49.072;8.804;2022-11-21T15:04:03;9.90;99.90
8910;DHT22;4490;49.072;8.804;2022-11-21T15:06:30;9.80;99.90
8910;DHT22;4490;49.072;8.804;2022-11-21T15:08:59;9.70;99.90
8910;DHT22;4490;49.072;8.804;2022-11-21T15:11:37;9.70;99.90
8910;DHT22;4490;49.072;8.804;2022-11-21T15:14:15;9.70;99.90
8910;DHT22;4490;49.072;8.804;2022-11-21T15:16:48;9.60;99.90
8910;DHT22;4490;49.072;8.804;2022-11-21T15:19:25;9.50;99.90
8910;DHT22;4490;49.072;8.804;2022-11-21T15:21:54;9.50;99.90
8910;DHT22;4490;49.072;8.804;2022-11-21T15:24:41;9.40;99.90
8910;DHT22;4490;49.072;8.804;2022-11-21T15:27:28;9.40;99.90
8910;DHT22;4490;49.072;8.804;2022-11-21T15:35:48;9.20;99.90
8910;DHT22;4490;49.072;8.804;2022-11-21T15:38:30;9.10;99.90
8910;DHT22;4490;49.072;8.804;2022-11-21T15:41:04;9.10;99.90
8910;DHT22;4490;49.072;8.804;2022-11-21T15:43:55;9.00;99.90
8910;DHT22;4490;49.072;8.804;2022-11-21T15:48:55;8.90;99.90
8910;DHT22;4490;49.072;8.804;2022-11-21T15:51:28;8.80;99.90
8910;DHT22;4490;49.072;8.804;2022-11-21T15:53:56;8.80;99.90
8910;DHT22;4490;49.072;8.804;2022-11-21T15:56:21;8.70;99.90
8910;DHT22;4490;49.072;8.804;2022-11-21T15:58:47;8.70;99.90
8910;DHT22;4490;49.072;8.804;2022-11-21T16:01:18;8.60;99.90
8910;DHT22;4490;49.072;8.804;2022-11-21T16:03:47;8.60;99.90
8910;DHT22;4490;49.072;8.804;2022-11-21T16:06:13;8.50;99.90
8910;DHT22;4490;49.072;8.804;2022-11-21T16:08:39;8.40;99.90
8910;DHT22;4490;49.072;8.804;2022-11-21T16:11:05;8.40;99.90
8910;DHT22;4490;49.072;8.804;2022-11-21T16:13:31;8.40;99.90
8910;DHT22;4490;49.072;8.804;2022-11-21T16:15:59;8.30;99.90
8910;DHT22;4490;49.072;8.804;2022-11-21T16:18:25;8.20;99.90
8910;DHT22;4490;49.072;8.804;2022-11-21T16:20:51;8.20;99.90
8910;DHT22;4490;49.072;8.804;2022-11-21T16:23:16;8.10;99.90
8910;DHT22;4490;49.072;8.804;2022-11-21T16:25:54;8.00;99.90
8910;DHT22;4490;49.072;8.804;2022-11-21T16:28:20;8.00;99.90
8910;DHT22;4490;49.072;8.804;2022-11-21T16:30:45;7.90;99.90
8910;DHT22;4490;49.072;8.804;2022-11-21T16:33:11;7.90;99.90
8910;DHT22;4490;49.072;8.804;2022-11-21T16:35:37;7.80;99.90
8910;DHT22;4490;49.072;8.804;2022-11-21T16:38:07;7.80;99.90
8910;DHT22;4490;49.072;8.804;2022-11-21T16:40:33;7.70;99.90
8910;DHT22;4490;49.072;8.804;2022-11-21T16:43:10;7.70;99.90
8910;DHT22;4490;49.072;8.804;2022-11-21T16:45:37;7.70;99.90
8910;DHT22;4490;49.072;8.804;2022-11-21T16:48:04;7.70;99.90
8910;DHT22;4490;49.072;8.804;2022-11-21T16:50:30;7.60;99.90
8910;DHT22;4490;49.072;8.804;2022-11-21T16:52:56;7.60;99.90
8910;DHT22;4490;49.072;8.804;2022-11-21T16:55:21;7.60;99.90
8910;DHT22;4490;49.072;8.804;2022-11-21T16:57:47;7.60;99.90
8910;DHT22;4490;49.072;8.804;2022-11-21T17:00:13;7.60;99.90
8910;DHT22;4490;49.072;8.804;2022-11-21T17:02:39;7.60;99.90
8910;DHT22;4490;49.072;8.804;2022-11-21T17:05:05;7.60;99.90
8910;DHT22;4490;49.072;8.804;2022-11-21T17:07:32;7.60;99.90
8910;DHT22;4490;49.072;8.804;2022-11-21T17:09:58;7.60;99.90
8910;DHT22;4490;49.072;8.804;2022-11-21T17:12:24;7.60;99.90
8910;DHT22;4490;49.072;8.804;2022-11-21T17:14:50;7.60;99.90
8910;DHT22;4490;49.072;8.804;2022-11-21T17:17:16;7.50;99.90
8910;DHT22;4490;49.072;8.804;2022-11-21T17:19:42;7.50;99.90
8910;DHT22;4490;49.072;8.804;2022-11-21T17:22:09;7.50;99.90
8910;DHT22;4490;49.072;8.804;2022-11-21T17:24:35;7.40;99.90
8910;DHT22;4490;49.072;8.804;2022-11-21T17:27:01;7.40;99.90
8910;DHT22;4490;49.072;8.804;2022-11-21T17:29:30;7.40;99.90
8910;DHT22;4490;49.072;8.804;2022-11-21T17:31:56;7.40;99.90
8910;DHT22;4490;49.072;8.804;2022-11-21T17:34:22;7.40;99.90
8910;DHT22;4490;49.072;8.804;2022-11-21T17:36:48;7.30;99.90
8910;DHT22;4490;49.072;8.804;2022-11-21T17:39:14;7.30;99.90
8910;DHT22;4490;49.072;8.804;2022-11-21T17:41:42;7.30;99.90
8910;DHT22;4490;49.072;8.804;2022-11-21T17:44:11;7.30;99.90
8910;DHT22;4490;49.072;8.804;2022-11-21T17:46:38;7.20;99.90
8910;DHT22;4490;49.072;8.804;2022-11-21T17:49:03;7.20;99.90
8910;DHT22;4490;49.072;8.804;2022-11-21T17:51:31;7.10;99.90
8910;DHT22;4490;49.072;8.804;2022-11-21T17:53:59;7.10;99.90
8910;DHT22;4490;49.072;8.804;2022-11-21T17:56:27;7.00;99.90
8910;DHT22;4490;49.072;8.804;2022-11-21T17:58:53;7.00;99.90
8910;DHT22;4490;49.072;8.804;2022-11-21T18:01:20;7.00;99.90
8910;DHT22;4490;49.072;8.804;2022-11-21T18:03:57;7.00;99.90
8910;DHT22;4490;49.072;8.804;2022-11-21T18:06:24;7.00;99.90
8910;DHT22;4490;49.072;8.804;2022-11-21T18:08:51;7.00;99.90
8910;DHT22;4490;49.072;8.804;2022-11-21T18:11:18;7.00;99.90
8910;DHT22;4490;49.072;8.804;2022-11-21T18:13:46;7.00;99.90
8910;DHT22;4490;49.072;8.804;2022-11-21T18:16:15;7.00;99.90
8910;DHT22;4490;49.072;8.804;2022-11-21T18:18:41;7.00;99.90
8910;DHT22;4490;49.072;8.804;2022-11-21T18:21:16;7.00;99.90
8910;DHT22;4490;49.072;8.804;2022-11-21T18:23:42;7.00;99.90
8910;DHT22;4490;49.072;8.804;2022-11-21T18:26:13;7.00;99.90
8910;DHT22;4490;49.072;8.804;2022-11-21T18:28:39;7.00;99.90